createdAt,value
2022-09-05T00:01:27.715Z,20.00
2022-09-05T00:04:08.374Z,20.00
2022-09-05T00:06:59.315Z,19.90
2022-09-05T00:09:48.281Z,19.90
2022-09-05T00:12:15.846Z,19.90
2022-09-05T00:15:16.972Z,19.90
2022-09-05T00:20:46.719Z,19.90
2022-09-05T00:24:29.218Z,19.90
2022-09-05T00:24:37.609Z,19.90
2022-09-05T00:26:57.485Z,19.80
2022-09-05T00:30:41.987Z,19.70
2022-09-05T00:32:41.990Z,19.80
2022-09-05T00:35:26.341Z,19.60
2022-09-05T00:37:54.348Z,19.60
2022-09-05T00:40:29.793Z,19.60
2022-09-05T00:42:59.648Z,19.50
2022-09-05T00:45:33.233Z,19.50
2022-09-05T00:48:13.740Z,19.50
2022-09-05T00:50:58.128Z,19.50
2022-09-05T00:53:32.699Z,19.50
2022-09-05T00:56:07.061Z,19.50
2022-09-05T00:58:57.561Z,19.40
2022-09-05T01:01:31.151Z,19.50
2022-09-05T01:04:18.278Z,19.50
2022-09-05T01:07:04.146Z,19.40
2022-09-05T01:09:53.514Z,19.40
2022-09-05T01:12:41.499Z,19.20
2022-09-05T01:15:23.418Z,19.30
2022-09-05T01:18:32.268Z,19.20
2022-09-05T01:21:21.372Z,19.20
2022-09-05T01:24:11.210Z,19.20
2022-09-05T01:26:58.874Z,19.00
2022-09-05T01:29:40.121Z,19.00
2022-09-05T01:32:24.275Z,18.90
2022-09-05T01:35:01.047Z,18.90
2022-09-05T01:37:37.763Z,19.10
2022-09-05T01:40:26.009Z,18.90
2022-09-05T01:43:15.053Z,18.90
2022-09-05T01:45:50.633Z,18.90
2022-09-05T01:48:30.502Z,19.00
2022-09-05T01:51:28.177Z,18.90
2022-09-05T01:54:10.144Z,18.90
2022-09-05T01:57:02.687Z,18.80
2022-09-05T01:59:40.703Z,18.80
2022-09-05T02:02:48.846Z,18.80
2022-09-05T02:05:51.734Z,18.80
2022-09-05T02:08:41.694Z,18.70
2022-09-05T02:11:10.653Z,18.70
2022-09-05T02:13:51.486Z,18.90
2022-09-05T02:16:23.961Z,18.70
2022-09-05T02:18:58.739Z,18.60
2022-09-05T02:21:55.413Z,18.50
2022-09-05T02:24:28.224Z,18.50
2022-09-05T02:27:47.609Z,18.60
2022-09-05T02:30:09.868Z,18.50
2022-09-05T02:32:50.873Z,18.50
2022-09-05T02:35:26.165Z,18.50
2022-09-05T02:40:21.934Z,18.50
2022-09-05T02:45:10.559Z,18.40
2022-09-05T02:45:19.181Z,18.50
2022-09-05T02:46:42.592Z,18.50
2022-09-05T02:49:17.651Z,18.40
2022-09-05T02:57:33.653Z,18.40
2022-09-05T02:57:37.967Z,18.40
2022-09-05T02:58:05.968Z,18.40
2022-09-05T03:00:39.279Z,18.30
2022-09-05T03:03:19.197Z,18.30
2022-09-05T03:05:57.171Z,18.30
2022-09-05T03:08:49.443Z,18.30
2022-09-05T03:11:53.231Z,18.30
2022-09-05T03:14:56.640Z,18.20
2022-09-05T03:17:53.400Z,18.20
2022-09-05T03:20:52.281Z,18.20
2022-09-05T03:23:48.691Z,18.20
2022-09-05T03:26:48.158Z,18.30
2022-09-05T03:29:41.326Z,18.30
2022-09-05T03:32:33.937Z,18.20
2022-09-05T03:35:53.312Z,18.10
2022-09-05T03:38:50.642Z,18.10
2022-09-05T03:41:40.319Z,18.10
2022-09-05T03:44:23.699Z,18.10
2022-09-05T03:47:13.071Z,18.00
2022-09-05T03:53:11.479Z,18.10
2022-09-05T03:57:22.887Z,18.00
2022-09-05T03:57:27.108Z,18.00
2022-09-05T03:59:45.790Z,18.00
2022-09-05T04:03:21.562Z,18.00
2022-09-05T04:08:07.619Z,18.10
2022-09-05T04:08:32.495Z,18.00
2022-09-05T04:11:00.133Z,18.00
2022-09-05T04:13:31.351Z,18.00
2022-09-05T04:16:09.825Z,17.90
2022-09-05T04:18:40.644Z,17.90
2022-09-05T04:21:13.521Z,18.00
2022-09-05T04:24:05.969Z,18.00
2022-09-05T04:27:11.914Z,17.90
2022-09-05T04:29:47.961Z,17.90
2022-09-05T04:32:27.891Z,17.90
2022-09-05T04:35:20.041Z,17.90
2022-09-05T04:37:55.728Z,17.90
2022-09-05T04:40:45.119Z,17.90
2022-09-05T04:43:25.820Z,17.90
2022-09-05T04:45:58.509Z,17.80
2022-09-05T04:48:34.585Z,17.80
2022-09-05T04:51:08.473Z,17.70
2022-09-05T04:53:57.013Z,17.80
2022-09-05T04:56:30.649Z,17.70
2022-09-05T05:01:39.341Z,17.70
2022-09-05T05:06:10.849Z,17.70
2022-09-05T05:06:15.484Z,17.70
2022-09-05T05:07:40.635Z,17.70
2022-09-05T05:13:13.331Z,17.70
2022-09-05T05:17:57.093Z,17.70
2022-09-05T05:18:01.868Z,17.70
2022-09-05T05:18:59.421Z,17.70
2022-09-05T05:21:33.046Z,17.70
2022-09-05T05:24:08.034Z,17.60
2022-09-05T05:26:42.745Z,17.70
2022-09-05T05:29:19.679Z,17.60
2022-09-05T05:31:51.754Z,17.60
2022-09-05T05:34:24.669Z,17.60
2022-09-05T05:37:00.702Z,17.60
2022-09-05T05:39:30.194Z,17.70
2022-09-05T05:41:58.846Z,17.60
2022-09-05T05:44:34.302Z,17.60
2022-09-05T05:47:03.585Z,17.60
2022-09-05T05:49:45.776Z,17.60
2022-09-05T05:52:40.830Z,17.60
2022-09-05T05:55:50.647Z,17.60
2022-09-05T05:58:26.377Z,17.60
2022-09-05T06:01:41.610Z,17.60
2022-09-05T06:04:46.511Z,17.60
2022-09-05T06:07:25.357Z,17.60
2022-09-05T06:14:49.121Z,17.60
2022-09-05T06:14:57.993Z,17.70
2022-09-05T06:17:23.944Z,17.80
2022-09-05T06:22:07.464Z,17.80
2022-09-05T06:23:51.748Z,17.80
2022-09-05T06:26:51.125Z,17.90
2022-09-05T06:29:34.506Z,18.00
2022-09-05T06:32:22.020Z,18.10
2022-09-05T06:35:18.881Z,18.00
2022-09-05T06:37:52.602Z,18.10
2022-09-05T06:40:28.074Z,18.10
2022-09-05T06:43:17.490Z,18.20
2022-09-05T06:46:15.603Z,18.30
2022-09-05T06:49:33.341Z,18.50
2022-09-05T06:52:35.000Z,18.60
2022-09-05T06:55:31.181Z,18.80
2022-09-05T06:58:42.276Z,18.90
2022-09-05T07:01:10.212Z,19.00
2022-09-05T07:03:56.527Z,19.10
2022-09-05T07:07:01.075Z,19.20
2022-09-05T07:09:28.618Z,19.30
2022-09-05T07:12:10.035Z,19.40
2022-09-05T07:14:48.718Z,19.50
2022-09-05T07:17:20.304Z,19.60
2022-09-05T07:19:54.880Z,19.70
2022-09-05T07:22:47.707Z,19.80
2022-09-05T07:25:18.878Z,19.90
2022-09-05T07:28:26.369Z,20.10
2022-09-05T07:30:50.866Z,20.10
2022-09-05T07:33:20.292Z,20.20
2022-09-05T07:35:50.695Z,20.30
2022-09-05T07:38:20.801Z,20.40
2022-09-05T07:40:53.257Z,20.40
2022-09-05T07:43:25.574Z,20.40
2022-09-05T07:46:06.784Z,20.50
2022-09-05T07:48:37.359Z,20.50
2022-09-05T07:56:49.624Z,20.50
2022-09-05T07:57:01.603Z,20.50
2022-09-05T07:57:25.462Z,20.50
2022-09-05T07:59:41.690Z,20.60
2022-09-05T08:02:12.770Z,20.70
2022-09-05T08:04:41.851Z,20.80
2022-09-05T08:07:46.774Z,20.80
2022-09-05T08:10:08.783Z,20.90
2022-09-05T08:13:22.547Z,20.90
2022-09-05T08:15:39.647Z,21.00
2022-09-05T08:18:23.213Z,21.10
2022-09-05T08:20:54.324Z,21.20
2022-09-05T08:23:39.840Z,21.30
2022-09-05T08:26:11.111Z,21.40
2022-09-05T08:28:46.355Z,21.50
2022-09-05T08:31:19.402Z,21.50
2022-09-05T08:33:52.819Z,21.70
2022-09-05T08:36:29.553Z,21.80
2022-09-05T08:39:00.360Z,21.80
2022-09-05T08:41:50.082Z,21.80
2022-09-05T08:46:42.192Z,21.90
2022-09-05T08:47:26.274Z,21.90
2022-09-05T08:50:16.655Z,22.00
2022-09-05T08:52:52.637Z,22.00
2022-09-05T08:55:32.933Z,22.10
2022-09-05T08:58:17.943Z,22.30
2022-09-05T09:00:55.716Z,22.40
2022-09-05T09:03:32.408Z,22.40
2022-09-05T09:06:22.523Z,22.60
2022-09-05T09:09:12.367Z,22.60
2022-09-05T09:11:45.606Z,22.60
2022-09-05T09:14:40.712Z,22.70
2022-09-05T09:17:22.236Z,22.60
2022-09-05T09:19:53.199Z,22.70
2022-09-05T09:22:40.874Z,22.80
2022-09-05T09:25:15.684Z,22.90
2022-09-05T09:28:45.299Z,22.90
2022-09-05T09:31:11.373Z,22.90
2022-09-05T09:33:44.836Z,23.00
2022-09-05T09:36:36.067Z,23.10
2022-09-05T09:39:37.468Z,23.20
2022-09-05T09:42:33.202Z,23.30
2022-09-05T09:45:28.292Z,23.40
2022-09-05T09:48:33.357Z,23.50
2022-09-05T09:51:14.321Z,23.60
2022-09-05T09:53:58.290Z,23.70
2022-09-05T09:57:05.498Z,23.80
2022-09-05T10:00:03.072Z,23.70
2022-09-05T10:08:32.199Z,23.60
2022-09-05T10:10:46.045Z,23.70
2022-09-05T10:10:52.196Z,23.70
2022-09-05T10:15:14.520Z,23.90
2022-09-05T10:18:19.031Z,24.00
2022-09-05T10:21:15.758Z,24.00
2022-09-05T10:24:01.921Z,24.10
2022-09-05T10:27:07.399Z,24.20
2022-09-05T10:29:54.954Z,24.40
2022-09-05T10:35:08.049Z,24.40
2022-09-05T10:35:23.587Z,24.50
2022-09-05T10:37:56.905Z,24.60
2022-09-05T10:40:25.956Z,24.60
2022-09-05T10:43:00.545Z,24.70
2022-09-05T10:45:50.557Z,24.70
2022-09-05T10:48:30.230Z,24.90
2022-09-05T10:51:27.845Z,25.10
2022-09-05T10:54:45.848Z,25.20
2022-09-05T10:57:39.010Z,25.30
2022-09-05T11:02:21.752Z,25.50
2022-09-05T11:03:40.156Z,25.60
2022-09-05T11:06:17.332Z,25.70
2022-09-05T11:09:08.265Z,25.80
2022-09-05T11:11:46.358Z,25.90
2022-09-05T11:14:50.356Z,26.00
2022-09-05T11:17:35.807Z,26.10
2022-09-05T11:20:50.520Z,26.20
2022-09-05T11:23:28.404Z,26.30
2022-09-05T11:26:01.933Z,26.40
2022-09-05T11:28:51.016Z,26.30
2022-09-05T11:32:04.264Z,26.30
2022-09-05T11:39:54.023Z,26.30
2022-09-05T11:39:57.097Z,26.30
2022-09-05T11:42:10.699Z,26.30
2022-09-05T11:44:59.918Z,26.50
2022-09-05T11:48:03.689Z,26.80
2022-09-05T11:51:33.447Z,27.00
2022-09-05T11:54:34.345Z,27.10
2022-09-05T11:57:34.467Z,27.20
2022-09-05T12:00:32.834Z,27.40
2022-09-05T12:03:59.067Z,27.40
2022-09-05T12:06:50.040Z,27.60
2022-09-05T12:09:34.250Z,27.90
2022-09-05T12:12:39.219Z,28.00
2022-09-05T12:15:24.313Z,28.20
2022-09-05T12:18:04.305Z,28.30
2022-09-05T12:21:00.536Z,28.50
2022-09-05T12:23:53.949Z,28.40
2022-09-05T12:27:40.625Z,28.40
2022-09-05T12:29:29.183Z,28.50
2022-09-05T12:33:14.839Z,28.70
2022-09-05T12:36:10.872Z,29.00
2022-09-05T12:40:55.969Z,29.10
2022-09-05T12:41:44.464Z,29.20
2022-09-05T12:44:38.219Z,29.20
2022-09-05T12:46:27.560Z,29.30
2022-09-05T12:49:06.715Z,29.30
2022-09-05T12:51:46.753Z,29.40
2022-09-05T12:54:33.761Z,29.50
2022-09-05T13:00:48.177Z,29.70
2022-09-05T13:02:57.343Z,29.80
2022-09-05T13:03:07.314Z,30.10
2022-09-05T13:05:49.649Z,30.30
2022-09-05T13:08:21.100Z,30.50
2022-09-05T13:14:46.606Z,30.80
2022-09-05T13:14:54.320Z,30.80
2022-09-05T13:16:39.666Z,30.80
2022-09-05T13:19:22.036Z,30.80
2022-09-05T13:21:52.486Z,30.90
2022-09-05T13:24:27.862Z,30.70
2022-09-05T13:26:57.698Z,30.70
2022-09-05T13:29:39.871Z,30.90
2022-09-05T13:38:02.867Z,30.70
2022-09-05T13:38:19.754Z,30.60
2022-09-05T13:38:37.735Z,30.70
2022-09-05T13:41:04.364Z,30.90
2022-09-05T13:43:38.201Z,30.80
2022-09-05T13:46:12.170Z,30.90
2022-09-05T13:51:44.056Z,31.00
2022-09-05T13:54:42.006Z,31.20
2022-09-05T13:57:32.269Z,31.10
2022-09-05T14:00:27.978Z,30.80
2022-09-05T14:03:39.454Z,31.00
2022-09-05T14:06:45.632Z,31.30
2022-09-05T14:09:38.252Z,31.20
2022-09-05T14:12:17.748Z,30.40
2022-09-05T14:17:55.898Z,30.10
2022-09-05T14:20:44.465Z,30.50
2022-09-05T14:23:21.529Z,30.80
2022-09-05T14:25:53.440Z,30.90
2022-09-05T14:28:26.472Z,31.10
2022-09-05T14:33:45.334Z,31.30
2022-09-05T14:37:44.259Z,31.60
2022-09-05T14:37:52.921Z,31.80
2022-09-05T14:40:02.175Z,32.00
2022-09-05T14:43:07.345Z,31.90
2022-09-05T14:46:02.600Z,31.80
2022-09-05T14:48:54.530Z,31.80
2022-09-05T14:51:40.811Z,31.90
2022-09-05T15:00:52.398Z,31.60
2022-09-05T15:02:52.913Z,31.60
2022-09-05T15:03:02.013Z,31.70
2022-09-05T15:05:40.860Z,31.70
2022-09-05T15:11:23.803Z,31.30
2022-09-05T15:12:17.199Z,30.70
2022-09-05T15:13:57.465Z,30.60
2022-09-05T15:16:25.579Z,30.30
2022-09-05T15:18:53.373Z,30.10
2022-09-05T15:21:33.881Z,29.80
2022-09-05T15:24:05.295Z,29.40
2022-09-05T15:26:48.288Z,29.10
2022-09-05T15:29:24.354Z,28.80
2022-09-05T15:31:59.389Z,28.60
2022-09-05T15:34:34.889Z,28.60
2022-09-05T15:37:22.778Z,28.40
2022-09-05T15:40:01.039Z,28.40
2022-09-05T15:42:35.387Z,28.40
2022-09-05T15:45:10.502Z,28.50
2022-09-05T15:47:59.748Z,28.90
2022-09-05T15:50:31.504Z,29.00
2022-09-05T15:53:08.803Z,28.90
2022-09-05T15:55:47.962Z,28.80
2022-09-05T15:58:29.950Z,29.00
2022-09-05T16:01:52.342Z,28.70
2022-09-05T16:09:04.672Z,28.50
2022-09-05T16:10:35.549Z,27.90
2022-09-05T16:10:41.770Z,28.10
2022-09-05T16:12:46.943Z,27.70
2022-09-05T16:18:10.366Z,27.60
2022-09-05T16:23:14.431Z,27.50
2022-09-05T16:23:32.505Z,27.30
2022-09-05T16:24:00.752Z,27.20
2022-09-05T16:26:39.099Z,27.10
2022-09-05T16:29:11.089Z,27.10
2022-09-05T16:31:45.100Z,26.90
2022-09-05T16:34:23.887Z,26.90
2022-09-05T16:37:08.525Z,26.80
2022-09-05T16:39:38.878Z,26.80
2022-09-05T16:42:14.162Z,26.70
2022-09-05T16:44:47.146Z,26.70
2022-09-05T16:47:25.878Z,26.60
2022-09-05T16:50:01.465Z,26.60
2022-09-05T16:52:37.473Z,26.50
2022-09-05T16:55:11.839Z,26.50
2022-09-05T16:57:43.697Z,26.50
2022-09-05T17:00:11.433Z,26.40
2022-09-05T17:02:44.057Z,26.30
2022-09-05T17:05:22.564Z,26.20
2022-09-05T17:08:09.884Z,26.20
2022-09-05T17:10:44.311Z,26.10
2022-09-05T17:13:36.013Z,25.90
2022-09-05T17:16:04.667Z,25.90
2022-09-05T17:18:34.391Z,25.80
2022-09-05T17:21:08.838Z,25.80
2022-09-05T17:29:01.302Z,25.70
2022-09-05T17:29:23.461Z,25.60
2022-09-05T17:32:47.159Z,25.50
2022-09-05T17:35:30.884Z,25.40
2022-09-05T17:38:28.692Z,25.40
2022-09-05T17:41:21.950Z,25.30
2022-09-05T17:43:57.482Z,25.20
2022-09-05T17:46:27.338Z,25.20
2022-09-05T17:49:18.975Z,25.10
2022-09-05T17:52:20.833Z,25.10
2022-09-05T17:54:52.442Z,25.00
2022-09-05T17:57:40.157Z,24.90
2022-09-05T18:00:43.935Z,24.90
2022-09-05T18:03:10.985Z,24.80
2022-09-05T18:06:29.216Z,24.70
2022-09-05T18:08:56.309Z,24.70
2022-09-05T18:11:44.803Z,24.70
2022-09-05T18:14:42.290Z,24.60
2022-09-05T18:17:47.517Z,24.60
2022-09-05T18:20:19.363Z,24.60
2022-09-05T18:23:28.451Z,24.50
2022-09-05T18:25:54.187Z,24.50
2022-09-05T18:28:32.983Z,24.40
2022-09-05T18:31:53.595Z,24.20
2022-09-05T18:34:43.321Z,24.10
2022-09-05T18:37:56.286Z,23.80
2022-09-05T18:41:02.612Z,23.70
2022-09-05T18:43:38.641Z,23.70
2022-09-05T18:46:14.667Z,23.40
2022-09-05T18:49:07.157Z,23.10
2022-09-05T18:51:43.151Z,22.90
2022-09-05T18:54:20.213Z,22.70
2022-09-05T18:57:19.873Z,22.60
2022-09-05T18:59:48.898Z,22.50
2022-09-05T19:02:26.739Z,22.40
2022-09-05T19:05:15.982Z,22.40
2022-09-05T19:07:48.222Z,22.40
2022-09-05T19:10:36.255Z,22.40
2022-09-05T19:13:13.080Z,22.40
2022-09-05T19:15:52.871Z,22.50
2022-09-05T19:18:34.670Z,22.40
2022-09-05T19:21:11.927Z,22.40
2022-09-05T19:23:50.583Z,22.40
2022-09-05T19:26:18.426Z,22.50
2022-09-05T19:36:59.132Z,22.50
2022-09-05T19:37:15.381Z,22.50
2022-09-05T19:37:22.666Z,22.40
2022-09-05T19:37:35.956Z,22.40
2022-09-05T19:46:17.059Z,22.40
2022-09-05T19:47:29.535Z,22.30
2022-09-05T19:47:47.841Z,22.20
2022-09-05T19:48:34.961Z,22.30
2022-09-05T19:51:17.339Z,22.20
2022-09-05T19:53:47.532Z,22.30
2022-09-05T19:56:16.311Z,22.20
2022-09-05T19:58:43.363Z,22.20
2022-09-05T20:01:15.991Z,22.20
2022-09-05T20:03:48.384Z,22.20
2022-09-05T20:06:28.951Z,22.10
2022-09-05T20:09:14.096Z,22.20
2022-09-05T20:11:46.755Z,22.20
2022-09-05T20:14:25.422Z,22.20
2022-09-05T20:16:55.997Z,22.20
2022-09-05T20:19:28.650Z,22.20
2022-09-05T20:22:11.485Z,22.20
2022-09-05T20:24:49.826Z,22.20
2022-09-05T20:27:17.200Z,22.20
2022-09-05T20:29:54.884Z,22.20
2022-09-05T20:32:37.093Z,22.20
2022-09-05T20:37:40.174Z,22.20
2022-09-05T20:43:20.996Z,22.20
2022-09-05T20:43:27.334Z,22.10
2022-09-05T20:43:54.849Z,22.00
2022-09-05T20:52:44.512Z,22.00
2022-09-05T20:54:13.409Z,22.00
2022-09-05T20:54:23.434Z,22.00
2022-09-05T20:55:39.547Z,22.00
2022-09-05T20:58:10.755Z,22.00
2022-09-05T21:00:41.221Z,21.90
2022-09-05T21:03:31.234Z,21.80
2022-09-05T21:06:22.290Z,21.70
2022-09-05T21:08:51.615Z,21.80
2022-09-05T21:11:29.510Z,21.70
2022-09-05T21:13:59.240Z,21.70
2022-09-05T21:16:30.208Z,21.60
2022-09-05T21:18:57.372Z,21.60
2022-09-05T21:21:29.428Z,21.60
2022-09-05T21:24:17.670Z,21.60
2022-09-05T21:26:47.574Z,21.60
2022-09-05T21:29:20.849Z,21.50
2022-09-05T21:31:54.624Z,21.50
2022-09-05T21:34:30.952Z,21.40
2022-09-05T21:37:06.356Z,21.40
2022-09-05T21:39:39.992Z,21.40
2022-09-05T21:43:45.183Z,21.30
2022-09-05T21:47:49.807Z,21.30
2022-09-05T21:47:52.015Z,21.20
2022-09-05T21:50:31.366Z,21.20
2022-09-05T21:53:13.193Z,21.20
2022-09-05T21:59:20.125Z,21.20
2022-09-05T21:59:30.623Z,21.20
2022-09-05T22:01:44.637Z,21.20
2022-09-05T22:04:13.292Z,21.20
2022-09-05T22:06:40.102Z,21.20
2022-09-05T22:09:13.006Z,21.20
2022-09-05T22:11:42.330Z,21.20
2022-09-05T22:14:09.572Z,21.30
2022-09-05T22:16:44.907Z,21.10
2022-09-05T22:19:12.882Z,21.10
2022-09-05T22:21:40.476Z,21.00
2022-09-05T22:24:10.754Z,21.00
2022-09-05T22:27:11.084Z,20.90
2022-09-05T22:29:28.479Z,20.90
2022-09-05T22:31:55.337Z,20.90
2022-09-05T22:34:22.478Z,20.80
2022-09-05T22:36:50.826Z,20.80
2022-09-05T22:39:36.429Z,20.80
2022-09-05T22:42:10.206Z,20.70
2022-09-05T22:44:40.215Z,20.70
2022-09-05T22:47:07.825Z,20.70
2022-09-05T22:49:36.407Z,20.60
2022-09-05T22:52:04.694Z,20.60
2022-09-05T22:54:31.823Z,20.60
2022-09-05T22:56:58.657Z,20.50
2022-09-05T22:59:25.808Z,20.50
2022-09-05T23:01:54.094Z,20.40
2022-09-05T23:04:21.013Z,20.40
2022-09-05T23:06:47.878Z,20.50
2022-09-05T23:09:14.832Z,20.50
2022-09-05T23:11:41.980Z,20.40
2022-09-05T23:14:08.784Z,20.40
2022-09-05T23:16:35.714Z,20.30
2022-09-05T23:19:03.928Z,20.30
2022-09-05T23:21:31.090Z,20.30
2022-09-05T23:23:57.856Z,20.20
2022-09-05T23:26:24.740Z,20.30
2022-09-05T23:28:51.549Z,20.30
2022-09-05T23:31:18.532Z,20.30
2022-09-05T23:33:45.365Z,20.30
2022-09-05T23:36:14.652Z,20.30
2022-09-05T23:38:42.339Z,20.20
2022-09-05T23:41:11.535Z,20.20
2022-09-05T23:43:38.407Z,20.10
2022-09-05T23:46:06.117Z,20.10
2022-09-05T23:48:33.132Z,20.10
2022-09-05T23:51:05.675Z,20.10
2022-09-05T23:53:34.185Z,20.10
2022-09-05T23:56:01.752Z,20.10
2022-09-05T23:58:29.243Z,20.10
